Rayo Cortado, Argentina
Current Conditions -  °F | °C
As of 6:00 PM on Thursday 27 Nov 2014 (Local Time) from SACO Reporting Station
Clear Clear  
Wind Chill: 86°   Ceiling: Unl
Heat Index: 86°   Visibility: 6mi
Dew Point: 41°   Wind: 18mph
Humidity: 20%   Direction: 20°NNE
Pressure: 29.91"   Gusts: NA
Location:  30.08°S, 63.82°W
Report Text: SACO 272100Z 02016KT CAVOK 30/05 Q1013
Loading
Personal Weather Stations






























Interactive Weather Map New forecast layout! Learn more

10-Day Weather Forecast

Advertisements
Track Severe Weather on mobile